sensor_id;sensor_type;location;lat;lon;timestamp;P1;durP1;ratioP1;P2;durP2;ratioP2
19347;SDS011;9810;52.480;9.806;2023-12-20T00:01:16;5.97;;;4.50;;
19347;SDS011;9810;52.480;9.806;2023-12-20T00:03:43;9.37;;;5.33;;
19347;SDS011;9810;52.480;9.806;2023-12-20T00:06:10;8.70;;;5.63;;
19347;SDS011;9810;52.480;9.806;2023-12-20T00:08:37;9.57;;;6.23;;
19347;SDS011;9810;52.480;9.806;2023-12-20T00:11:06;9.07;;;5.93;;
19347;SDS011;9810;52.480;9.806;2023-12-20T00:13:33;6.77;;;5.40;;
19347;SDS011;9810;52.480;9.806;2023-12-20T00:15:59;9.90;;;5.37;;
19347;SDS011;9810;52.480;9.806;2023-12-20T00:18:26;10.95;;;6.55;;
19347;SDS011;9810;52.480;9.806;2023-12-20T00:20:53;9.93;;;5.87;;
19347;SDS011;9810;52.480;9.806;2023-12-20T00:23:20;8.63;;;5.13;;
19347;SDS011;9810;52.480;9.806;2023-12-20T00:25:48;12.80;;;5.20;;
19347;SDS011;9810;52.480;9.806;2023-12-20T00:28:16;10.47;;;5.17;;
19347;SDS011;9810;52.480;9.806;2023-12-20T00:30:43;10.23;;;5.65;;
19347;SDS011;9810;52.480;9.806;2023-12-20T00:33:10;6.67;;;4.77;;
19347;SDS011;9810;52.480;9.806;2023-12-20T00:35:37;10.93;;;4.30;;
19347;SDS011;9810;52.480;9.806;2023-12-20T00:38:04;7.13;;;4.23;;
19347;SDS011;9810;52.480;9.806;2023-12-20T00:40:33;6.87;;;3.40;;
19347;SDS011;9810;52.480;9.806;2023-12-20T00:43:00;10.30;;;4.07;;
19347;SDS011;9810;52.480;9.806;2023-12-20T00:45:29;11.43;;;4.10;;
19347;SDS011;9810;52.480;9.806;2023-12-20T00:47:56;14.47;;;3.37;;
19347;SDS011;9810;52.480;9.806;2023-12-20T00:50:24;6.23;;;3.33;;
19347;SDS011;9810;52.480;9.806;2023-12-20T00:52:51;7.73;;;2.60;;
19347;SDS011;9810;52.480;9.806;2023-12-20T00:55:19;11.77;;;4.10;;
19347;SDS011;9810;52.480;9.806;2023-12-20T00:57:46;7.27;;;2.37;;
19347;SDS011;9810;52.480;9.806;2023-12-20T01:00:13;6.77;;;2.43;;
19347;SDS011;9810;52.480;9.806;2023-12-20T01:02:42;6.70;;;2.67;;
19347;SDS011;9810;52.480;9.806;2023-12-20T01:05:11;7.10;;;2.00;;
19347;SDS011;9810;52.480;9.806;2023-12-20T01:07:38;8.50;;;2.53;;
19347;SDS011;9810;52.480;9.806;2023-12-20T01:10:05;5.03;;;1.77;;
19347;SDS011;9810;52.480;9.806;2023-12-20T01:12:33;7.47;;;2.20;;
19347;SDS011;9810;52.480;9.806;2023-12-20T01:14:59;6.63;;;2.07;;
19347;SDS011;9810;52.480;9.806;2023-12-20T01:17:26;4.63;;;1.53;;
19347;SDS011;9810;52.480;9.806;2023-12-20T01:19:55;9.73;;;2.67;;
19347;SDS011;9810;52.480;9.806;2023-12-20T01:22:23;6.80;;;2.00;;
19347;SDS011;9810;52.480;9.806;2023-12-20T01:24:50;5.07;;;2.05;;
19347;SDS011;9810;52.480;9.806;2023-12-20T01:27:17;9.37;;;2.03;;
19347;SDS011;9810;52.480;9.806;2023-12-20T01:29:43;9.07;;;1.83;;
19347;SDS011;9810;52.480;9.806;2023-12-20T01:32:10;7.17;;;1.73;;
19347;SDS011;9810;52.480;9.806;2023-12-20T01:34:36;8.33;;;2.20;;
19347;SDS011;9810;52.480;9.806;2023-12-20T01:37:05;10.67;;;1.90;;
19347;SDS011;9810;52.480;9.806;2023-12-20T01:39:32;5.77;;;1.60;;
19347;SDS011;9810;52.480;9.806;2023-12-20T01:41:59;7.37;;;1.73;;
19347;SDS011;9810;52.480;9.806;2023-12-20T01:44:26;5.33;;;1.80;;
19347;SDS011;9810;52.480;9.806;2023-12-20T01:46:53;9.07;;;1.80;;
19347;SDS011;9810;52.480;9.806;2023-12-20T01:49:20;4.60;;;1.47;;
19347;SDS011;9810;52.480;9.806;2023-12-20T01:51:48;7.30;;;1.40;;
19347;SDS011;9810;52.480;9.806;2023-12-20T01:54:17;6.77;;;1.40;;
19347;SDS011;9810;52.480;9.806;2023-12-20T01:56:45;7.87;;;1.50;;
19347;SDS011;9810;52.480;9.806;2023-12-20T01:59:12;11.63;;;1.70;;
19347;SDS011;9810;52.480;9.806;2023-12-20T02:01:39;7.73;;;1.47;;
19347;SDS011;9810;52.480;9.806;2023-12-20T02:04:06;10.93;;;2.10;;
19347;SDS011;9810;52.480;9.806;2023-12-20T02:06:33;10.00;;;1.73;;
19347;SDS011;9810;52.480;9.806;2023-12-20T02:09:00;5.10;;;1.70;;
19347;SDS011;9810;52.480;9.806;2023-12-20T02:11:29;9.60;;;1.50;;
19347;SDS011;9810;52.480;9.806;2023-12-20T02:13:56;10.80;;;2.17;;
19347;SDS011;9810;52.480;9.806;2023-12-20T02:16:23;7.83;;;2.07;;
19347;SDS011;9810;52.480;9.806;2023-12-20T02:18:50;4.97;;;1.33;;
19347;SDS011;9810;52.480;9.806;2023-12-20T02:21:17;8.17;;;1.67;;
19347;SDS011;9810;52.480;9.806;2023-12-20T02:23:45;10.93;;;1.93;;
19347;SDS011;9810;52.480;9.806;2023-12-20T02:26:12;9.17;;;1.73;;
19347;SDS011;9810;52.480;9.806;2023-12-20T02:28:40;7.57;;;1.70;;
19347;SDS011;9810;52.480;9.806;2023-12-20T02:31:07;10.73;;;2.17;;
19347;SDS011;9810;52.480;9.806;2023-12-20T02:33:34;3.13;;;1.17;;
19347;SDS011;9810;52.480;9.806;2023-12-20T02:36:00;6.33;;;1.57;;
19347;SDS011;9810;52.480;9.806;2023-12-20T02:38:27;7.77;;;1.53;;
19347;SDS011;9810;52.480;9.806;2023-12-20T02:40:56;9.03;;;2.10;;
19347;SDS011;9810;52.480;9.806;2023-12-20T02:43:23;10.07;;;2.20;;
19347;SDS011;9810;52.480;9.806;2023-12-20T02:45:49;4.90;;;1.13;;
19347;SDS011;9810;52.480;9.806;2023-12-20T02:48:17;5.43;;;1.70;;
19347;SDS011;9810;52.480;9.806;2023-12-20T02:50:44;7.10;;;1.50;;
19347;SDS011;9810;52.480;9.806;2023-12-20T02:53:13;10.33;;;1.40;;
19347;SDS011;9810;52.480;9.806;2023-12-20T02:55:40;8.60;;;1.83;;
19347;SDS011;9810;52.480;9.806;2023-12-20T02:58:08;5.37;;;1.83;;
19347;SDS011;9810;52.480;9.806;2023-12-20T03:00:35;8.50;;;2.43;;
19347;SDS011;9810;52.480;9.806;2023-12-20T03:03:02;5.23;;;1.60;;
19347;SDS011;9810;52.480;9.806;2023-12-20T03:05:29;7.97;;;1.73;;
19347;SDS011;9810;52.480;9.806;2023-12-20T03:07:56;13.50;;;3.13;;
19347;SDS011;9810;52.480;9.806;2023-12-20T03:10:23;8.97;;;2.13;;
19347;SDS011;9810;52.480;9.806;2023-12-20T03:12:50;8.03;;;3.40;;
19347;SDS011;9810;52.480;9.806;2023-12-20T03:15:18;10.50;;;3.10;;
19347;SDS011;9810;52.480;9.806;2023-12-20T03:17:45;6.57;;;1.40;;
19347;SDS011;9810;52.480;9.806;2023-12-20T03:20:12;7.10;;;2.20;;
19347;SDS011;9810;52.480;9.806;2023-12-20T03:22:39;4.40;;;1.80;;
19347;SDS011;9810;52.480;9.806;2023-12-20T03:25:06;6.70;;;1.83;;
19347;SDS011;9810;52.480;9.806;2023-12-20T03:27:34;9.17;;;1.70;;
19347;SDS011;9810;52.480;9.806;2023-12-20T03:30:03;10.10;;;1.87;;
19347;SDS011;9810;52.480;9.806;2023-12-20T03:32:32;5.73;;;1.70;;
19347;SDS011;9810;52.480;9.806;2023-12-20T03:34:59;4.93;;;1.60;;
19347;SDS011;9810;52.480;9.806;2023-12-20T03:37:27;6.80;;;2.23;;
19347;SDS011;9810;52.480;9.806;2023-12-20T03:39:54;6.05;;;2.15;;
19347;SDS011;9810;52.480;9.806;2023-12-20T03:42:21;3.50;;;1.80;;
19347;SDS011;9810;52.480;9.806;2023-12-20T03:44:48;7.63;;;1.77;;
19347;SDS011;9810;52.480;9.806;2023-12-20T03:47:15;6.13;;;1.60;;
19347;SDS011;9810;52.480;9.806;2023-12-20T03:49:44;5.40;;;1.80;;
19347;SDS011;9810;52.480;9.806;2023-12-20T03:52:11;10.37;;;1.60;;
19347;SDS011;9810;52.480;9.806;2023-12-20T03:54:38;4.70;;;1.30;;
19347;SDS011;9810;52.480;9.806;2023-12-20T03:57:04;6.53;;;1.50;;
19347;SDS011;9810;52.480;9.806;2023-12-20T03:59:34;8.97;;;2.47;;
19347;SDS011;9810;52.480;9.806;2023-12-20T04:02:01;6.87;;;1.37;;
19347;SDS011;9810;52.480;9.806;2023-12-20T04:04:28;6.47;;;1.20;;
19347;SDS011;9810;52.480;9.806;2023-12-20T04:06:57;4.70;;;1.30;;
19347;SDS011;9810;52.480;9.806;2023-12-20T04:09:24;6.50;;;1.23;;
19347;SDS011;9810;52.480;9.806;2023-12-20T04:11:51;8.10;;;1.27;;
19347;SDS011;9810;52.480;9.806;2023-12-20T04:14:18;6.17;;;1.53;;
19347;SDS011;9810;52.480;9.806;2023-12-20T04:16:45;9.87;;;1.60;;
19347;SDS011;9810;52.480;9.806;2023-12-20T04:19:12;4.33;;;1.20;;
19347;SDS011;9810;52.480;9.806;2023-12-20T04:21:39;9.77;;;1.30;;
19347;SDS011;9810;52.480;9.806;2023-12-20T04:24:07;3.13;;;1.43;;
19347;SDS011;9810;52.480;9.806;2023-12-20T04:26:34;7.43;;;1.43;;
19347;SDS011;9810;52.480;9.806;2023-12-20T04:29:01;5.33;;;1.77;;
19347;SDS011;9810;52.480;9.806;2023-12-20T04:31:28;9.63;;;1.60;;
19347;SDS011;9810;52.480;9.806;2023-12-20T04:33:55;5.97;;;1.43;;
19347;SDS011;9810;52.480;9.806;2023-12-20T04:36:22;7.40;;;1.27;;
19347;SDS011;9810;52.480;9.806;2023-12-20T04:38:50;8.43;;;1.73;;
19347;SDS011;9810;52.480;9.806;2023-12-20T04:41:18;7.80;;;1.40;;
19347;SDS011;9810;52.480;9.806;2023-12-20T04:43:45;2.43;;;1.10;;
19347;SDS011;9810;52.480;9.806;2023-12-20T04:46:12;3.13;;;1.60;;
19347;SDS011;9810;52.480;9.806;2023-12-20T04:48:39;8.37;;;1.77;;
19347;SDS011;9810;52.480;9.806;2023-12-20T04:51:06;6.83;;;1.60;;
19347;SDS011;9810;52.480;9.806;2023-12-20T04:53:33;7.07;;;1.33;;
19347;SDS011;9810;52.480;9.806;2023-12-20T04:56:00;9.23;;;2.10;;
19347;SDS011;9810;52.480;9.806;2023-12-20T04:58:28;8.63;;;1.87;;
19347;SDS011;9810;52.480;9.806;2023-12-20T05:00:55;10.40;;;1.87;;
19347;SDS011;9810;52.480;9.806;2023-12-20T05:03:22;4.40;;;1.83;;
19347;SDS011;9810;52.480;9.806;2023-12-20T05:05:49;8.27;;;2.03;;
19347;SDS011;9810;52.480;9.806;2023-12-20T05:08:16;13.70;;;1.80;;
19347;SDS011;9810;52.480;9.806;2023-12-20T05:10:43;9.63;;;1.73;;
19347;SDS011;9810;52.480;9.806;2023-12-20T05:13:10;9.43;;;1.90;;
19347;SDS011;9810;52.480;9.806;2023-12-20T05:15:38;9.80;;;2.20;;
19347;SDS011;9810;52.480;9.806;2023-12-20T05:18:05;14.17;;;1.93;;
19347;SDS011;9810;52.480;9.806;2023-12-20T05:20:32;6.77;;;1.97;;
19347;SDS011;9810;52.480;9.806;2023-12-20T05:22:59;15.33;;;2.00;;
19347;SDS011;9810;52.480;9.806;2023-12-20T05:25:26;8.10;;;2.10;;
19347;SDS011;9810;52.480;9.806;2023-12-20T05:27:53;9.23;;;1.90;;
19347;SDS011;9810;52.480;9.806;2023-12-20T05:30:21;7.30;;;1.83;;
19347;SDS011;9810;52.480;9.806;2023-12-20T05:32:49;8.57;;;2.33;;
19347;SDS011;9810;52.480;9.806;2023-12-20T05:35:17;6.17;;;2.10;;
19347;SDS011;9810;52.480;9.806;2023-12-20T05:37:44;10.30;;;2.93;;
19347;SDS011;9810;52.480;9.806;2023-12-20T05:40:11;7.53;;;2.10;;
19347;SDS011;9810;52.480;9.806;2023-12-20T05:42:38;9.83;;;2.63;;
19347;SDS011;9810;52.480;9.806;2023-12-20T05:45:05;6.80;;;2.00;;
19347;SDS011;9810;52.480;9.806;2023-12-20T05:47:32;9.03;;;1.90;;
19347;SDS011;9810;52.480;9.806;2023-12-20T05:50:01;8.50;;;2.10;;
19347;SDS011;9810;52.480;9.806;2023-12-20T05:52:28;9.97;;;2.27;;
19347;SDS011;9810;52.480;9.806;2023-12-20T05:54:54;8.43;;;2.07;;
19347;SDS011;9810;52.480;9.806;2023-12-20T05:57:22;8.57;;;2.03;;
19347;SDS011;9810;52.480;9.806;2023-12-20T05:59:49;7.93;;;1.57;;
19347;SDS011;9810;52.480;9.806;2023-12-20T06:02:16;6.33;;;2.27;;
19347;SDS011;9810;52.480;9.806;2023-12-20T06:04:43;12.77;;;2.17;;
19347;SDS011;9810;52.480;9.806;2023-12-20T06:07:13;9.70;;;1.90;;
19347;SDS011;9810;52.480;9.806;2023-12-20T06:09:40;12.30;;;2.30;;
19347;SDS011;9810;52.480;9.806;2023-12-20T06:12:07;12.30;;;2.43;;
19347;SDS011;9810;52.480;9.806;2023-12-20T06:14:34;9.97;;;2.50;;
19347;SDS011;9810;52.480;9.806;2023-12-20T06:17:01;7.87;;;1.80;;
19347;SDS011;9810;52.480;9.806;2023-12-20T06:19:28;9.70;;;2.30;;
19347;SDS011;9810;52.480;9.806;2023-12-20T06:21:55;7.77;;;2.20;;
19347;SDS011;9810;52.480;9.806;2023-12-20T06:24:24;6.33;;;1.77;;
19347;SDS011;9810;52.480;9.806;2023-12-20T06:26:53;13.67;;;2.53;;
19347;SDS011;9810;52.480;9.806;2023-12-20T06:29:20;7.80;;;2.07;;
19347;SDS011;9810;52.480;9.806;2023-12-20T06:31:47;14.23;;;2.80;;
19347;SDS011;9810;52.480;9.806;2023-12-20T06:34:14;9.63;;;2.13;;
19347;SDS011;9810;52.480;9.806;2023-12-20T06:36:41;8.40;;;2.37;;
19347;SDS011;9810;52.480;9.806;2023-12-20T06:39:08;8.13;;;2.23;;
19347;SDS011;9810;52.480;9.806;2023-12-20T06:41:39;13.20;;;3.10;;
19347;SDS011;9810;52.480;9.806;2023-12-20T06:44:06;12.27;;;2.70;;
19347;SDS011;9810;52.480;9.806;2023-12-20T06:46:32;13.60;;;2.93;;
19347;SDS011;9810;52.480;9.806;2023-12-20T06:48:59;9.93;;;2.63;;
19347;SDS011;9810;52.480;9.806;2023-12-20T06:51:27;12.53;;;2.50;;
19347;SDS011;9810;52.480;9.806;2023-12-20T06:53:56;6.63;;;1.83;;
19347;SDS011;9810;52.480;9.806;2023-12-20T06:56:22;11.30;;;2.83;;
19347;SDS011;9810;52.480;9.806;2023-12-20T06:58:51;12.03;;;2.17;;
19347;SDS011;9810;52.480;9.806;2023-12-20T07:01:18;8.43;;;2.07;;
19347;SDS011;9810;52.480;9.806;2023-12-20T07:03:45;11.73;;;2.93;;
19347;SDS011;9810;52.480;9.806;2023-12-20T07:06:12;10.93;;;2.50;;
19347;SDS011;9810;52.480;9.806;2023-12-20T07:08:40;10.90;;;2.67;;
19347;SDS011;9810;52.480;9.806;2023-12-20T07:11:07;15.43;;;2.90;;
19347;SDS011;9810;52.480;9.806;2023-12-20T07:13:34;11.93;;;3.13;;
19347;SDS011;9810;52.480;9.806;2023-12-20T07:16:03;9.43;;;2.17;;
19347;SDS011;9810;52.480;9.806;2023-12-20T07:18:30;12.43;;;2.30;;
19347;SDS011;9810;52.480;9.806;2023-12-20T07:20:57;11.93;;;2.40;;
19347;SDS011;9810;52.480;9.806;2023-12-20T07:23:24;9.20;;;2.27;;
19347;SDS011;9810;52.480;9.806;2023-12-20T07:25:51;7.87;;;2.80;;
19347;SDS011;9810;52.480;9.806;2023-12-20T07:28:18;15.20;;;2.23;;
19347;SDS011;9810;52.480;9.806;2023-12-20T07:30:45;10.00;;;1.90;;
19347;SDS011;9810;52.480;9.806;2023-12-20T07:33:14;11.60;;;2.77;;
19347;SDS011;9810;52.480;9.806;2023-12-20T07:35:41;10.90;;;2.40;;
19347;SDS011;9810;52.480;9.806;2023-12-20T07:38:08;10.03;;;2.30;;
19347;SDS011;9810;52.480;9.806;2023-12-20T07:40:35;10.70;;;2.67;;
19347;SDS011;9810;52.480;9.806;2023-12-20T07:43:02;16.30;;;2.60;;
19347;SDS011;9810;52.480;9.806;2023-12-20T07:45:29;7.33;;;3.00;;
19347;SDS011;9810;52.480;9.806;2023-12-20T07:47:56;15.03;;;2.73;;
19347;SDS011;9810;52.480;9.806;2023-12-20T07:50:24;7.83;;;1.90;;
19347;SDS011;9810;52.480;9.806;2023-12-20T07:52:52;11.70;;;3.10;;
19347;SDS011;9810;52.480;9.806;2023-12-20T07:55:19;7.77;;;2.47;;
19347;SDS011;9810;52.480;9.806;2023-12-20T07:57:46;8.63;;;1.70;;
19347;SDS011;9810;52.480;9.806;2023-12-20T08:00:13;10.20;;;3.37;;
19347;SDS011;9810;52.480;9.806;2023-12-20T08:02:40;11.43;;;2.83;;
19347;SDS011;9810;52.480;9.806;2023-12-20T08:05:07;11.60;;;2.13;;
19347;SDS011;9810;52.480;9.806;2023-12-20T08:07:36;11.10;;;3.13;;
19347;SDS011;9810;52.480;9.806;2023-12-20T08:10:03;17.50;;;4.43;;
19347;SDS011;9810;52.480;9.806;2023-12-20T08:12:31;9.70;;;2.63;;
19347;SDS011;9810;52.480;9.806;2023-12-20T08:14:58;16.23;;;3.87;;
19347;SDS011;9810;52.480;9.806;2023-12-20T08:17:25;9.77;;;1.87;;
19347;SDS011;9810;52.480;9.806;2023-12-20T08:19:52;12.07;;;2.67;;
19347;SDS011;9810;52.480;9.806;2023-12-20T08:22:19;13.17;;;2.90;;
19347;SDS011;9810;52.480;9.806;2023-12-20T08:24:48;11.67;;;2.50;;
19347;SDS011;9810;52.480;9.806;2023-12-20T08:27:15;13.73;;;2.67;;
19347;SDS011;9810;52.480;9.806;2023-12-20T08:29:43;14.23;;;3.40;;
19347;SDS011;9810;52.480;9.806;2023-12-20T08:32:10;9.90;;;2.37;;
19347;SDS011;9810;52.480;9.806;2023-12-20T08:34:37;7.67;;;3.03;;
19347;SDS011;9810;52.480;9.806;2023-12-20T08:37:04;4.13;;;1.80;;
19347;SDS011;9810;52.480;9.806;2023-12-20T08:39:31;9.70;;;3.23;;
19347;SDS011;9810;52.480;9.806;2023-12-20T08:42:00;10.03;;;2.37;;
19347;SDS011;9810;52.480;9.806;2023-12-20T08:44:27;12.67;;;3.50;;
19347;SDS011;9810;52.480;9.806;2023-12-20T08:46:54;9.77;;;2.90;;
19347;SDS011;9810;52.480;9.806;2023-12-20T08:49:22;23.20;;;2.87;;
19347;SDS011;9810;52.480;9.806;2023-12-20T08:51:50;13.73;;;2.40;;
19347;SDS011;9810;52.480;9.806;2023-12-20T08:54:17;9.53;;;2.53;;
19347;SDS011;9810;52.480;9.806;2023-12-20T08:56:44;10.40;;;2.77;;
19347;SDS011;9810;52.480;9.806;2023-12-20T08:59:14;8.60;;;2.83;;
19347;SDS011;9810;52.480;9.806;2023-12-20T09:01:40;12.33;;;3.20;;
19347;SDS011;9810;52.480;9.806;2023-12-20T09:04:07;10.23;;;2.73;;
19347;SDS011;9810;52.480;9.806;2023-12-20T09:06:34;8.73;;;3.53;;
19347;SDS011;9810;52.480;9.806;2023-12-20T09:09:01;10.90;;;2.70;;
19347;SDS011;9810;52.480;9.806;2023-12-20T09:11:28;5.67;;;2.20;;
19347;SDS011;9810;52.480;9.806;2023-12-20T09:13:55;8.97;;;2.63;;
19347;SDS011;9810;52.480;9.806;2023-12-20T09:16:24;15.83;;;2.97;;
19347;SDS011;9810;52.480;9.806;2023-12-20T09:18:51;7.73;;;2.37;;
19347;SDS011;9810;52.480;9.806;2023-12-20T09:21:18;6.17;;;2.87;;
19347;SDS011;9810;52.480;9.806;2023-12-20T09:23:45;16.00;;;3.30;;
19347;SDS011;9810;52.480;9.806;2023-12-20T09:26:12;9.20;;;2.47;;
19347;SDS011;9810;52.480;9.806;2023-12-20T09:28:39;11.33;;;2.80;;
19347;SDS011;9810;52.480;9.806;2023-12-20T09:31:06;12.70;;;3.00;;
19347;SDS011;9810;52.480;9.806;2023-12-20T09:33:34;7.03;;;2.63;;
19347;SDS011;9810;52.480;9.806;2023-12-20T09:36:01;8.63;;;2.10;;
19347;SDS011;9810;52.480;9.806;2023-12-20T09:38:28;9.80;;;3.63;;
19347;SDS011;9810;52.480;9.806;2023-12-20T09:40:55;7.43;;;2.43;;
19347;SDS011;9810;52.480;9.806;2023-12-20T09:43:23;6.47;;;2.90;;
19347;SDS011;9810;52.480;9.806;2023-12-20T09:45:52;10.67;;;3.10;;
19347;SDS011;9810;52.480;9.806;2023-12-20T09:48:20;11.57;;;3.37;;
19347;SDS011;9810;52.480;9.806;2023-12-20T09:50:48;10.70;;;3.07;;
19347;SDS011;9810;52.480;9.806;2023-12-20T09:53:15;8.20;;;2.57;;
19347;SDS011;9810;52.480;9.806;2023-12-20T09:55:44;16.50;;;3.00;;
19347;SDS011;9810;52.480;9.806;2023-12-20T09:58:11;7.27;;;2.33;;
19347;SDS011;9810;52.480;9.806;2023-12-20T10:00:38;8.40;;;1.90;;
19347;SDS011;9810;52.480;9.806;2023-12-20T10:03:05;8.87;;;2.47;;
19347;SDS011;9810;52.480;9.806;2023-12-20T10:05:33;8.70;;;2.27;;
19347;SDS011;9810;52.480;9.806;2023-12-20T10:08:02;9.47;;;2.20;;
19347;SDS011;9810;52.480;9.806;2023-12-20T10:10:29;13.07;;;4.13;;
19347;SDS011;9810;52.480;9.806;2023-12-20T10:13:03;14.83;;;2.70;;
19347;SDS011;9810;52.480;9.806;2023-12-20T10:15:32;9.80;;;2.30;;
19347;SDS011;9810;52.480;9.806;2023-12-20T10:17:59;12.07;;;2.30;;
19347;SDS011;9810;52.480;9.806;2023-12-20T10:20:26;10.50;;;2.30;;
19347;SDS011;9810;52.480;9.806;2023-12-20T10:22:54;9.10;;;2.50;;
19347;SDS011;9810;52.480;9.806;2023-12-20T10:25:23;8.60;;;1.63;;
19347;SDS011;9810;52.480;9.806;2023-12-20T10:27:51;8.87;;;2.37;;
19347;SDS011;9810;52.480;9.806;2023-12-20T10:30:35;5.27;;;1.70;;
19347;SDS011;9810;52.480;9.806;2023-12-20T10:33:02;17.97;;;3.20;;
19347;SDS011;9810;52.480;9.806;2023-12-20T10:35:31;12.57;;;2.67;;
19347;SDS011;9810;52.480;9.806;2023-12-20T10:37:58;9.17;;;2.90;;
19347;SDS011;9810;52.480;9.806;2023-12-20T10:40:31;7.80;;;2.13;;
19347;SDS011;9810;52.480;9.806;2023-12-20T10:43:01;12.27;;;3.33;;
19347;SDS011;9810;52.480;9.806;2023-12-20T10:45:29;9.33;;;2.90;;
19347;SDS011;9810;52.480;9.806;2023-12-20T10:47:56;12.20;;;2.63;;
19347;SDS011;9810;52.480;9.806;2023-12-20T10:50:26;11.00;;;2.97;;
19347;SDS011;9810;52.480;9.806;2023-12-20T10:52:55;11.23;;;3.80;;
19347;SDS011;9810;52.480;9.806;2023-12-20T10:55:22;14.40;;;3.00;;
19347;SDS011;9810;52.480;9.806;2023-12-20T10:57:51;9.97;;;2.50;;
19347;SDS011;9810;52.480;9.806;2023-12-20T11:00:18;6.33;;;1.73;;
19347;SDS011;9810;52.480;9.806;2023-12-20T11:02:49;10.33;;;2.10;;
19347;SDS011;9810;52.480;9.806;2023-12-20T11:05:19;6.43;;;2.27;;
19347;SDS011;9810;52.480;9.806;2023-12-20T11:07:57;10.03;;;2.17;;
19347;SDS011;9810;52.480;9.806;2023-12-20T11:10:30;9.57;;;2.33;;
19347;SDS011;9810;52.480;9.806;2023-12-20T11:13:06;8.37;;;2.97;;
19347;SDS011;9810;52.480;9.806;2023-12-20T11:15:39;4.37;;;2.77;;
19347;SDS011;9810;52.480;9.806;2023-12-20T11:18:06;6.10;;;2.00;;
19347;SDS011;9810;52.480;9.806;2023-12-20T11:20:35;8.60;;;2.50;;
19347;SDS011;9810;52.480;9.806;2023-12-20T11:23:03;8.93;;;2.23;;
19347;SDS011;9810;52.480;9.806;2023-12-20T11:25:34;9.33;;;1.90;;
19347;SDS011;9810;52.480;9.806;2023-12-20T11:28:15;6.13;;;1.37;;
19347;SDS011;9810;52.480;9.806;2023-12-20T11:30:46;7.97;;;1.97;;
19347;SDS011;9810;52.480;9.806;2023-12-20T11:33:15;5.17;;;1.87;;
19347;SDS011;9810;52.480;9.806;2023-12-20T11:35:43;5.37;;;1.77;;
19347;SDS011;9810;52.480;9.806;2023-12-20T11:38:13;9.60;;;1.73;;
19347;SDS011;9810;52.480;9.806;2023-12-20T11:40:41;3.87;;;1.30;;
19347;SDS011;9810;52.480;9.806;2023-12-20T11:43:08;3.63;;;1.40;;
19347;SDS011;9810;52.480;9.806;2023-12-20T11:45:37;10.30;;;1.73;;
19347;SDS011;9810;52.480;9.806;2023-12-20T11:48:15;6.67;;;1.00;;
19347;SDS011;9810;52.480;9.806;2023-12-20T11:50:42;3.27;;;1.20;;
19347;SDS011;9810;52.480;9.806;2023-12-20T11:53:09;3.63;;;0.90;;
19347;SDS011;9810;52.480;9.806;2023-12-20T11:55:37;6.83;;;1.33;;
19347;SDS011;9810;52.480;9.806;2023-12-20T11:58:03;1.90;;;0.70;;
19347;SDS011;9810;52.480;9.806;2023-12-20T12:00:31;3.30;;;1.43;;
19347;SDS011;9810;52.480;9.806;2023-12-20T12:02:59;1.97;;;0.83;;
19347;SDS011;9810;52.480;9.806;2023-12-20T12:05:28;6.97;;;1.10;;
19347;SDS011;9810;52.480;9.806;2023-12-20T12:07:56;5.93;;;1.40;;
19347;SDS011;9810;52.480;9.806;2023-12-20T12:10:23;5.50;;;1.23;;
19347;SDS011;9810;52.480;9.806;2023-12-20T12:12:50;4.60;;;0.70;;
19347;SDS011;9810;52.480;9.806;2023-12-20T12:15:17;2.20;;;0.93;;
19347;SDS011;9810;52.480;9.806;2023-12-20T12:17:44;4.40;;;1.10;;
19347;SDS011;9810;52.480;9.806;2023-12-20T12:20:20;4.90;;;1.10;;
19347;SDS011;9810;52.480;9.806;2023-12-20T12:22:56;5.67;;;1.10;;
19347;SDS011;9810;52.480;9.806;2023-12-20T12:25:24;4.63;;;1.13;;
19347;SDS011;9810;52.480;9.806;2023-12-20T12:27:51;3.07;;;1.07;;
19347;SDS011;9810;52.480;9.806;2023-12-20T12:30:18;2.30;;;0.97;;
19347;SDS011;9810;52.480;9.806;2023-12-20T12:32:45;5.70;;;0.90;;
19347;SDS011;9810;52.480;9.806;2023-12-20T12:35:13;3.10;;;0.77;;
19347;SDS011;9810;52.480;9.806;2023-12-20T12:37:42;4.27;;;1.10;;
19347;SDS011;9810;52.480;9.806;2023-12-20T12:40:10;1.60;;;0.60;;
19347;SDS011;9810;52.480;9.806;2023-12-20T12:42:38;6.03;;;0.80;;
19347;SDS011;9810;52.480;9.806;2023-12-20T12:45:06;4.20;;;1.00;;
19347;SDS011;9810;52.480;9.806;2023-12-20T12:47:33;3.13;;;0.60;;
19347;SDS011;9810;52.480;9.806;2023-12-20T12:50:01;1.83;;;0.83;;
19347;SDS011;9810;52.480;9.806;2023-12-20T12:52:29;3.30;;;1.13;;
19347;SDS011;9810;52.480;9.806;2023-12-20T12:54:58;1.83;;;0.50;;
19347;SDS011;9810;52.480;9.806;2023-12-20T12:57:25;4.07;;;0.90;;
19347;SDS011;9810;52.480;9.806;2023-12-20T12:59:52;1.60;;;0.70;;
19347;SDS011;9810;52.480;9.806;2023-12-20T13:02:18;2.73;;;0.70;;
19347;SDS011;9810;52.480;9.806;2023-12-20T13:04:45;2.47;;;0.70;;
19347;SDS011;9810;52.480;9.806;2023-12-20T13:07:12;4.43;;;0.50;;
19347;SDS011;9810;52.480;9.806;2023-12-20T13:09:39;7.40;;;0.70;;
19347;SDS011;9810;52.480;9.806;2023-12-20T13:12:08;3.63;;;0.60;;
19347;SDS011;9810;52.480;9.806;2023-12-20T13:14:35;3.53;;;1.07;;
19347;SDS011;9810;52.480;9.806;2023-12-20T13:17:03;4.63;;;0.93;;
19347;SDS011;9810;52.480;9.806;2023-12-20T13:19:31;5.83;;;0.80;;
19347;SDS011;9810;52.480;9.806;2023-12-20T13:21:58;7.83;;;1.40;;
19347;SDS011;9810;52.480;9.806;2023-12-20T13:24:25;3.37;;;1.27;;
19347;SDS011;9810;52.480;9.806;2023-12-20T13:26:52;4.17;;;1.00;;
19347;SDS011;9810;52.480;9.806;2023-12-20T13:29:20;1.90;;;0.60;;
19347;SDS011;9810;52.480;9.806;2023-12-20T13:31:48;3.60;;;2.20;;
19347;SDS011;9810;52.480;9.806;2023-12-20T13:34:16;5.87;;;0.80;;
19347;SDS011;9810;52.480;9.806;2023-12-20T13:36:43;3.88;;;1.20;;
19347;SDS011;9810;52.480;9.806;2023-12-20T13:39:12;2.07;;;0.53;;
19347;SDS011;9810;52.480;9.806;2023-12-20T13:41:39;2.07;;;0.60;;
19347;SDS011;9810;52.480;9.806;2023-12-20T13:44:07;4.10;;;1.30;;
19347;SDS011;9810;52.480;9.806;2023-12-20T13:46:35;6.00;;;1.67;;
19347;SDS011;9810;52.480;9.806;2023-12-20T13:49:02;8.40;;;1.20;;
19347;SDS011;9810;52.480;9.806;2023-12-20T13:51:30;4.90;;;1.70;;
19347;SDS011;9810;52.480;9.806;2023-12-20T13:53:57;2.97;;;1.10;;
19347;SDS011;9810;52.480;9.806;2023-12-20T13:56:24;5.90;;;1.30;;
19347;SDS011;9810;52.480;9.806;2023-12-20T13:58:51;3.00;;;0.80;;
19347;SDS011;9810;52.480;9.806;2023-12-20T14:01:18;4.03;;;0.77;;
19347;SDS011;9810;52.480;9.806;2023-12-20T14:03:46;3.90;;;0.83;;
19347;SDS011;9810;52.480;9.806;2023-12-20T14:06:13;5.07;;;1.00;;
19347;SDS011;9810;52.480;9.806;2023-12-20T14:08:41;2.57;;;0.73;;
19347;SDS011;9810;52.480;9.806;2023-12-20T14:11:08;2.83;;;0.73;;
19347;SDS011;9810;52.480;9.806;2023-12-20T14:13:35;5.60;;;0.93;;
19347;SDS011;9810;52.480;9.806;2023-12-20T14:16:02;4.00;;;0.77;;
19347;SDS011;9810;52.480;9.806;2023-12-20T14:18:30;5.60;;;1.27;;
19347;SDS011;9810;52.480;9.806;2023-12-20T14:20:58;2.93;;;0.70;;
19347;SDS011;9810;52.480;9.806;2023-12-20T14:23:25;7.83;;;1.00;;
19347;SDS011;9810;52.480;9.806;2023-12-20T14:25:52;7.00;;;0.70;;
19347;SDS011;9810;52.480;9.806;2023-12-20T14:28:21;6.03;;;1.20;;
19347;SDS011;9810;52.480;9.806;2023-12-20T14:30:47;7.73;;;1.53;;
19347;SDS011;9810;52.480;9.806;2023-12-20T14:33:15;5.30;;;1.00;;
19347;SDS011;9810;52.480;9.806;2023-12-20T14:35:42;2.97;;;2.00;;
19347;SDS011;9810;52.480;9.806;2023-12-20T14:38:11;3.67;;;0.90;;
19347;SDS011;9810;52.480;9.806;2023-12-20T14:40:40;3.27;;;1.00;;
19347;SDS011;9810;52.480;9.806;2023-12-20T14:43:07;7.77;;;1.43;;
19347;SDS011;9810;52.480;9.806;2023-12-20T14:45:34;2.23;;;0.90;;
19347;SDS011;9810;52.480;9.806;2023-12-20T14:48:00;8.87;;;1.93;;
19347;SDS011;9810;52.480;9.806;2023-12-20T14:50:28;4.63;;;1.30;;
19347;SDS011;9810;52.480;9.806;2023-12-20T14:52:54;5.03;;;1.07;;
19347;SDS011;9810;52.480;9.806;2023-12-20T14:55:23;2.57;;;1.20;;
19347;SDS011;9810;52.480;9.806;2023-12-20T14:57:52;4.07;;;1.07;;
19347;SDS011;9810;52.480;9.806;2023-12-20T15:00:19;4.17;;;1.13;;